sensor_id;sensor_type;location;lat;lon;timestamp;temperature;humidity
16229;DHT22;8222;51.462;12.630;2023-04-19T00:01:17;9.70;99.90
16229;DHT22;8222;51.462;12.630;2023-04-19T00:03:42;9.70;99.90
16229;DHT22;8222;51.462;12.630;2023-04-19T00:06:08;9.70;99.90
16229;DHT22;8222;51.462;12.630;2023-04-19T00:08:39;9.60;99.90
16229;DHT22;8222;51.462;12.630;2023-04-19T00:11:08;9.60;99.90
16229;DHT22;8222;51.462;12.630;2023-04-19T00:13:36;9.50;99.90
16229;DHT22;8222;51.462;12.630;2023-04-19T00:16:04;9.40;99.90
16229;DHT22;8222;51.462;12.630;2023-04-19T00:18:30;9.40;99.90
16229;DHT22;8222;51.462;12.630;2023-04-19T00:20:56;9.40;99.90
16229;DHT22;8222;51.462;12.630;2023-04-19T00:23:28;9.30;99.90
16229;DHT22;8222;51.462;12.630;2023-04-19T00:25:56;9.30;99.90
16229;DHT22;8222;51.462;12.630;2023-04-19T00:28:23;9.10;99.90
16229;DHT22;8222;51.462;12.630;2023-04-19T00:30:49;9.00;99.90
16229;DHT22;8222;51.462;12.630;2023-04-19T00:33:15;8.90;99.90
16229;DHT22;8222;51.462;12.630;2023-04-19T00:35:43;8.90;99.90
16229;DHT22;8222;51.462;12.630;2023-04-19T00:38:11;9.00;99.90
16229;DHT22;8222;51.462;12.630;2023-04-19T00:40:37;8.90;99.90
16229;DHT22;8222;51.462;12.630;2023-04-19T00:43:02;8.90;99.90
16229;DHT22;8222;51.462;12.630;2023-04-19T00:45:31;9.00;99.90
16229;DHT22;8222;51.462;12.630;2023-04-19T00:47:58;8.90;99.90
16229;DHT22;8222;51.462;12.630;2023-04-19T00:50:25;8.90;99.90
16229;DHT22;8222;51.462;12.630;2023-04-19T00:52:52;8.90;99.90
16229;DHT22;8222;51.462;12.630;2023-04-19T00:55:22;9.00;99.90
16229;DHT22;8222;51.462;12.630;2023-04-19T00:57:53;8.90;99.90
16229;DHT22;8222;51.462;12.630;2023-04-19T01:00:18;8.80;99.90
16229;DHT22;8222;51.462;12.630;2023-04-19T01:02:45;8.90;99.90
16229;DHT22;8222;51.462;12.630;2023-04-19T01:05:13;8.90;99.90
16229;DHT22;8222;51.462;12.630;2023-04-19T01:07:39;8.80;99.90
16229;DHT22;8222;51.462;12.630;2023-04-19T01:10:05;8.80;99.90
16229;DHT22;8222;51.462;12.630;2023-04-19T01:12:31;8.80;99.90
16229;DHT22;8222;51.462;12.630;2023-04-19T01:15:00;8.80;99.90
16229;DHT22;8222;51.462;12.630;2023-04-19T01:17:26;8.90;99.90
16229;DHT22;8222;51.462;12.630;2023-04-19T01:20:03;8.80;99.90
16229;DHT22;8222;51.462;12.630;2023-04-19T01:22:31;8.70;99.90
16229;DHT22;8222;51.462;12.630;2023-04-19T01:24:57;8.70;99.90
16229;DHT22;8222;51.462;12.630;2023-04-19T01:27:23;8.60;99.90
16229;DHT22;8222;51.462;12.630;2023-04-19T01:29:49;8.60;99.90
16229;DHT22;8222;51.462;12.630;2023-04-19T01:32:19;8.70;99.90
16229;DHT22;8222;51.462;12.630;2023-04-19T01:34:44;8.80;99.90
16229;DHT22;8222;51.462;12.630;2023-04-19T01:37:10;8.80;99.90
16229;DHT22;8222;51.462;12.630;2023-04-19T01:39:41;8.80;99.90
16229;DHT22;8222;51.462;12.630;2023-04-19T01:42:07;8.80;99.90
16229;DHT22;8222;51.462;12.630;2023-04-19T01:44:32;8.70;99.90
16229;DHT22;8222;51.462;12.630;2023-04-19T01:46:58;8.80;99.90
16229;DHT22;8222;51.462;12.630;2023-04-19T01:49:24;8.70;99.90
16229;DHT22;8222;51.462;12.630;2023-04-19T01:51:49;8.50;99.90
16229;DHT22;8222;51.462;12.630;2023-04-19T01:54:17;8.40;99.90
16229;DHT22;8222;51.462;12.630;2023-04-19T01:56:46;8.40;99.90
16229;DHT22;8222;51.462;12.630;2023-04-19T01:59:12;8.40;99.90
16229;DHT22;8222;51.462;12.630;2023-04-19T02:01:37;8.30;99.90
16229;DHT22;8222;51.462;12.630;2023-04-19T02:04:03;8.30;99.90
16229;DHT22;8222;51.462;12.630;2023-04-19T02:06:32;8.30;99.90
16229;DHT22;8222;51.462;12.630;2023-04-19T02:08:57;8.30;99.90
16229;DHT22;8222;51.462;12.630;2023-04-19T02:11:23;8.30;99.90
16229;DHT22;8222;51.462;12.630;2023-04-19T02:13:51;8.30;99.90
16229;DHT22;8222;51.462;12.630;2023-04-19T02:16:19;8.20;99.90
16229;DHT22;8222;51.462;12.630;2023-04-19T02:18:45;8.10;99.90
16229;DHT22;8222;51.462;12.630;2023-04-19T02:21:12;8.10;99.90
16229;DHT22;8222;51.462;12.630;2023-04-19T02:23:40;8.10;99.90
16229;DHT22;8222;51.462;12.630;2023-04-19T02:26:06;8.10;99.90
16229;DHT22;8222;51.462;12.630;2023-04-19T02:28:32;8.10;99.90
16229;DHT22;8222;51.462;12.630;2023-04-19T02:30:58;8.20;99.90
16229;DHT22;8222;51.462;12.630;2023-04-19T02:33:26;8.20;99.90
16229;DHT22;8222;51.462;12.630;2023-04-19T02:35:55;8.20;99.90
16229;DHT22;8222;51.462;12.630;2023-04-19T02:38:21;8.30;99.90
16229;DHT22;8222;51.462;12.630;2023-04-19T02:40:48;8.20;99.90
16229;DHT22;8222;51.462;12.630;2023-04-19T02:43:14;8.30;99.90
16229;DHT22;8222;51.462;12.630;2023-04-19T02:45:40;8.20;99.90
16229;DHT22;8222;51.462;12.630;2023-04-19T02:48:05;8.10;99.90
16229;DHT22;8222;51.462;12.630;2023-04-19T02:50:36;8.10;99.90
16229;DHT22;8222;51.462;12.630;2023-04-19T02:53:03;8.00;99.90
16229;DHT22;8222;51.462;12.630;2023-04-19T02:55:28;8.00;99.90
16229;DHT22;8222;51.462;12.630;2023-04-19T02:57:56;7.90;99.90
16229;DHT22;8222;51.462;12.630;2023-04-19T03:00:27;8.70;99.90
16229;DHT22;8222;51.462;12.630;2023-04-19T03:02:53;7.90;99.90
16229;DHT22;8222;51.462;12.630;2023-04-19T03:05:20;7.90;99.90
16229;DHT22;8222;51.462;12.630;2023-04-19T03:07:51;8.00;99.90
16229;DHT22;8222;51.462;12.630;2023-04-19T03:10:18;8.00;99.90
16229;DHT22;8222;51.462;12.630;2023-04-19T03:12:44;7.90;99.90
16229;DHT22;8222;51.462;12.630;2023-04-19T03:15:12;7.90;99.90
16229;DHT22;8222;51.462;12.630;2023-04-19T03:17:40;7.80;99.90
16229;DHT22;8222;51.462;12.630;2023-04-19T03:20:07;7.80;99.90
16229;DHT22;8222;51.462;12.630;2023-04-19T03:22:37;7.80;99.90
16229;DHT22;8222;51.462;12.630;2023-04-19T03:25:06;7.80;99.90
16229;DHT22;8222;51.462;12.630;2023-04-19T03:27:34;7.90;99.90
16229;DHT22;8222;51.462;12.630;2023-04-19T03:30:02;7.90;99.90
16229;DHT22;8222;51.462;12.630;2023-04-19T03:32:30;7.90;99.90
16229;DHT22;8222;51.462;12.630;2023-04-19T03:34:56;7.80;99.90
16229;DHT22;8222;51.462;12.630;2023-04-19T03:37:24;7.90;99.90
16229;DHT22;8222;51.462;12.630;2023-04-19T03:39:50;8.00;99.90
16229;DHT22;8222;51.462;12.630;2023-04-19T03:42:18;7.90;99.90
16229;DHT22;8222;51.462;12.630;2023-04-19T03:44:43;8.00;99.90
16229;DHT22;8222;51.462;12.630;2023-04-19T03:47:11;7.90;99.90
16229;DHT22;8222;51.462;12.630;2023-04-19T03:49:39;7.90;99.90
16229;DHT22;8222;51.462;12.630;2023-04-19T03:52:07;7.90;99.90
16229;DHT22;8222;51.462;12.630;2023-04-19T03:54:32;7.90;99.90
16229;DHT22;8222;51.462;12.630;2023-04-19T03:56:58;7.80;99.90
16229;DHT22;8222;51.462;12.630;2023-04-19T03:59:24;7.80;99.90
16229;DHT22;8222;51.462;12.630;2023-04-19T04:01:50;7.80;99.90
16229;DHT22;8222;51.462;12.630;2023-04-19T04:04:16;7.80;99.90
16229;DHT22;8222;51.462;12.630;2023-04-19T04:06:46;7.70;99.90
16229;DHT22;8222;51.462;12.630;2023-04-19T04:09:14;7.80;99.90
16229;DHT22;8222;51.462;12.630;2023-04-19T04:11:40;7.80;99.90
16229;DHT22;8222;51.462;12.630;2023-04-19T04:14:08;7.70;99.90
16229;DHT22;8222;51.462;12.630;2023-04-19T04:16:36;7.60;99.90
16229;DHT22;8222;51.462;12.630;2023-04-19T04:19:02;7.60;99.90
16229;DHT22;8222;51.462;12.630;2023-04-19T04:21:32;7.60;99.90
16229;DHT22;8222;51.462;12.630;2023-04-19T04:24:00;7.60;99.90
16229;DHT22;8222;51.462;12.630;2023-04-19T04:26:29;7.60;99.90
16229;DHT22;8222;51.462;12.630;2023-04-19T04:28:59;8.00;99.90
16229;DHT22;8222;51.462;12.630;2023-04-19T04:31:26;7.50;99.90
16229;DHT22;8222;51.462;12.630;2023-04-19T04:33:52;7.60;99.90
16229;DHT22;8222;51.462;12.630;2023-04-19T04:36:21;7.50;99.90
16229;DHT22;8222;51.462;12.630;2023-04-19T04:38:49;7.50;99.90
16229;DHT22;8222;51.462;12.630;2023-04-19T04:41:17;7.50;99.90
16229;DHT22;8222;51.462;12.630;2023-04-19T04:43:45;7.40;99.90
16229;DHT22;8222;51.462;12.630;2023-04-19T04:46:13;7.30;99.90
16229;DHT22;8222;51.462;12.630;2023-04-19T04:48:39;7.40;99.90
16229;DHT22;8222;51.462;12.630;2023-04-19T04:51:05;7.40;99.90
16229;DHT22;8222;51.462;12.630;2023-04-19T04:53:31;7.40;99.90
16229;DHT22;8222;51.462;12.630;2023-04-19T04:55:56;7.30;99.90
16229;DHT22;8222;51.462;12.630;2023-04-19T04:58:22;7.40;99.90
16229;DHT22;8222;51.462;12.630;2023-04-19T05:00:48;7.40;99.90
16229;DHT22;8222;51.462;12.630;2023-04-19T05:03:14;7.50;99.90
16229;DHT22;8222;51.462;12.630;2023-04-19T05:05:44;7.50;99.90
16229;DHT22;8222;51.462;12.630;2023-04-19T05:08:10;7.50;99.90
16229;DHT22;8222;51.462;12.630;2023-04-19T05:10:36;7.40;99.90
16229;DHT22;8222;51.462;12.630;2023-04-19T05:13:04;7.60;99.90
16229;DHT22;8222;51.462;12.630;2023-04-19T05:15:29;7.60;99.90
16229;DHT22;8222;51.462;12.630;2023-04-19T05:18:01;7.60;99.90
16229;DHT22;8222;51.462;12.630;2023-04-19T05:20:30;7.70;99.90
16229;DHT22;8222;51.462;12.630;2023-04-19T05:23:01;7.50;99.90
16229;DHT22;8222;51.462;12.630;2023-04-19T05:25:29;7.40;99.90
16229;DHT22;8222;51.462;12.630;2023-04-19T05:27:54;7.30;99.90
16229;DHT22;8222;51.462;12.630;2023-04-19T05:30:24;7.40;99.90
16229;DHT22;8222;51.462;12.630;2023-04-19T05:32:50;7.60;99.90
16229;DHT22;8222;51.462;12.630;2023-04-19T05:35:17;7.60;99.90
16229;DHT22;8222;51.462;12.630;2023-04-19T05:37:42;7.50;99.90
16229;DHT22;8222;51.462;12.630;2023-04-19T05:40:08;7.50;99.90
16229;DHT22;8222;51.462;12.630;2023-04-19T05:42:37;7.40;99.90
16229;DHT22;8222;51.462;12.630;2023-04-19T05:45:03;7.60;99.90
16229;DHT22;8222;51.462;12.630;2023-04-19T05:47:29;7.70;99.90
16229;DHT22;8222;51.462;12.630;2023-04-19T05:49:57;7.80;99.90
16229;DHT22;8222;51.462;12.630;2023-04-19T05:52:23;8.00;99.90
16229;DHT22;8222;51.462;12.630;2023-04-19T05:54:48;7.90;99.90
16229;DHT22;8222;51.462;12.630;2023-04-19T05:57:14;7.90;99.90
16229;DHT22;8222;51.462;12.630;2023-04-19T05:59:40;7.80;99.90
16229;DHT22;8222;51.462;12.630;2023-04-19T06:02:06;7.90;99.90
16229;DHT22;8222;51.462;12.630;2023-04-19T06:04:32;7.70;99.90
16229;DHT22;8222;51.462;12.630;2023-04-19T06:07:00;7.60;99.90
16229;DHT22;8222;51.462;12.630;2023-04-19T06:09:28;7.70;99.90
16229;DHT22;8222;51.462;12.630;2023-04-19T06:11:54;7.80;99.90
16229;DHT22;8222;51.462;12.630;2023-04-19T06:14:19;7.80;99.90
16229;DHT22;8222;51.462;12.630;2023-04-19T06:16:45;7.70;99.90
16229;DHT22;8222;51.462;12.630;2023-04-19T06:19:14;7.70;99.90
16229;DHT22;8222;51.462;12.630;2023-04-19T06:21:40;7.60;99.90
16229;DHT22;8222;51.462;12.630;2023-04-19T06:24:06;7.70;99.90
16229;DHT22;8222;51.462;12.630;2023-04-19T06:26:34;7.70;99.90
16229;DHT22;8222;51.462;12.630;2023-04-19T06:29:02;7.90;99.90
16229;DHT22;8222;51.462;12.630;2023-04-19T06:31:28;8.10;99.90
16229;DHT22;8222;51.462;12.630;2023-04-19T06:33:54;8.30;99.90
16229;DHT22;8222;51.462;12.630;2023-04-19T06:36:20;8.30;99.90
16229;DHT22;8222;51.462;12.630;2023-04-19T06:38:45;8.30;99.90
16229;DHT22;8222;51.462;12.630;2023-04-19T06:41:11;8.40;99.90
16229;DHT22;8222;51.462;12.630;2023-04-19T06:43:39;8.40;99.90
16229;DHT22;8222;51.462;12.630;2023-04-19T06:46:07;8.30;99.90
16229;DHT22;8222;51.462;12.630;2023-04-19T06:48:34;8.30;99.90
16229;DHT22;8222;51.462;12.630;2023-04-19T06:51:00;8.30;99.90
16229;DHT22;8222;51.462;12.630;2023-04-19T06:53:28;8.40;99.90
16229;DHT22;8222;51.462;12.630;2023-04-19T06:56:01;8.60;99.90
16229;DHT22;8222;51.462;12.630;2023-04-19T06:58:28;8.70;99.90
16229;DHT22;8222;51.462;12.630;2023-04-19T07:00:57;8.80;99.90
16229;DHT22;8222;51.462;12.630;2023-04-19T07:03:22;8.90;99.90
16229;DHT22;8222;51.462;12.630;2023-04-19T07:05:48;8.80;99.90
16229;DHT22;8222;51.462;12.630;2023-04-19T07:08:16;8.90;99.90
16229;DHT22;8222;51.462;12.630;2023-04-19T07:10:42;8.90;99.90
16229;DHT22;8222;51.462;12.630;2023-04-19T07:13:10;9.30;99.90
16229;DHT22;8222;51.462;12.630;2023-04-19T07:15:38;9.10;99.90
16229;DHT22;8222;51.462;12.630;2023-04-19T07:18:07;9.10;99.90
16229;DHT22;8222;51.462;12.630;2023-04-19T07:20:37;9.10;99.90
16229;DHT22;8222;51.462;12.630;2023-04-19T07:23:09;9.20;99.90
16229;DHT22;8222;51.462;12.630;2023-04-19T07:25:35;9.30;99.90
16229;DHT22;8222;51.462;12.630;2023-04-19T07:28:01;9.40;99.90
16229;DHT22;8222;51.462;12.630;2023-04-19T07:30:31;9.50;99.90
16229;DHT22;8222;51.462;12.630;2023-04-19T07:32:59;9.50;99.90
16229;DHT22;8222;51.462;12.630;2023-04-19T07:35:25;9.60;99.90
16229;DHT22;8222;51.462;12.630;2023-04-19T07:37:51;9.60;99.90
16229;DHT22;8222;51.462;12.630;2023-04-19T07:40:21;9.70;99.90
16229;DHT22;8222;51.462;12.630;2023-04-19T07:42:49;9.30;99.90
16229;DHT22;8222;51.462;12.630;2023-04-19T07:45:15;9.80;99.90
16229;DHT22;8222;51.462;12.630;2023-04-19T07:47:45;9.90;99.90
16229;DHT22;8222;51.462;12.630;2023-04-19T07:50:14;10.00;99.90
16229;DHT22;8222;51.462;12.630;2023-04-19T07:52:40;9.80;99.90
16229;DHT22;8222;51.462;12.630;2023-04-19T07:55:06;9.90;99.90
16229;DHT22;8222;51.462;12.630;2023-04-19T07:57:34;10.00;99.90
16229;DHT22;8222;51.462;12.630;2023-04-19T08:00:00;10.00;99.90
16229;DHT22;8222;51.462;12.630;2023-04-19T08:02:28;10.00;99.90
16229;DHT22;8222;51.462;12.630;2023-04-19T08:04:54;10.20;99.90
16229;DHT22;8222;51.462;12.630;2023-04-19T08:07:24;10.40;99.90
16229;DHT22;8222;51.462;12.630;2023-04-19T08:09:50;10.50;99.90
16229;DHT22;8222;51.462;12.630;2023-04-19T08:12:18;10.60;99.90
16229;DHT22;8222;51.462;12.630;2023-04-19T08:14:44;10.60;99.90
16229;DHT22;8222;51.462;12.630;2023-04-19T08:17:11;10.70;99.90
16229;DHT22;8222;51.462;12.630;2023-04-19T08:19:36;10.50;99.90
16229;DHT22;8222;51.462;12.630;2023-04-19T08:22:04;10.60;99.90
16229;DHT22;8222;51.462;12.630;2023-04-19T08:24:32;10.90;99.90
16229;DHT22;8222;51.462;12.630;2023-04-19T08:27:00;11.00;99.90
16229;DHT22;8222;51.462;12.630;2023-04-19T08:29:28;11.20;99.90
16229;DHT22;8222;51.462;12.630;2023-04-19T08:31:56;11.30;99.90
16229;DHT22;8222;51.462;12.630;2023-04-19T08:34:22;11.40;99.90
16229;DHT22;8222;51.462;12.630;2023-04-19T08:36:50;11.50;99.90
16229;DHT22;8222;51.462;12.630;2023-04-19T08:39:23;11.50;99.90
16229;DHT22;8222;51.462;12.630;2023-04-19T08:41:49;11.50;99.90
16229;DHT22;8222;51.462;12.630;2023-04-19T08:44:18;11.70;99.90
16229;DHT22;8222;51.462;12.630;2023-04-19T08:46:50;11.60;99.90
16229;DHT22;8222;51.462;12.630;2023-04-19T08:49:18;11.60;99.90
16229;DHT22;8222;51.462;12.630;2023-04-19T08:51:48;11.80;99.90
16229;DHT22;8222;51.462;12.630;2023-04-19T08:54:17;11.50;99.90
16229;DHT22;8222;51.462;12.630;2023-04-19T08:56:44;11.40;99.90
16229;DHT22;8222;51.462;12.630;2023-04-19T08:59:10;11.60;99.90
16229;DHT22;8222;51.462;12.630;2023-04-19T09:01:35;11.60;99.90
16229;DHT22;8222;51.462;12.630;2023-04-19T09:04:05;11.60;99.90
16229;DHT22;8222;51.462;12.630;2023-04-19T09:06:38;11.70;99.90
16229;DHT22;8222;51.462;12.630;2023-04-19T09:09:27;11.60;99.90
16229;DHT22;8222;51.462;12.630;2023-04-19T09:11:53;11.60;99.90
16229;DHT22;8222;51.462;12.630;2023-04-19T09:14:26;11.80;99.90
16229;DHT22;8222;51.462;12.630;2023-04-19T09:16:51;12.00;99.90
16229;DHT22;8222;51.462;12.630;2023-04-19T09:19:20;12.00;99.90
16229;DHT22;8222;51.462;12.630;2023-04-19T09:21:46;12.10;99.90
16229;DHT22;8222;51.462;12.630;2023-04-19T09:24:12;12.40;99.90
16229;DHT22;8222;51.462;12.630;2023-04-19T09:26:37;12.40;99.90
16229;DHT22;8222;51.462;12.630;2023-04-19T09:29:06;12.50;99.90
16229;DHT22;8222;51.462;12.630;2023-04-19T09:31:35;12.50;99.90
16229;DHT22;8222;51.462;12.630;2023-04-19T09:34:17;12.70;99.90
16229;DHT22;8222;51.462;12.630;2023-04-19T09:36:44;12.70;99.90
16229;DHT22;8222;51.462;12.630;2023-04-19T09:39:10;12.50;99.90
16229;DHT22;8222;51.462;12.630;2023-04-19T09:41:54;12.40;99.90
16229;DHT22;8222;51.462;12.630;2023-04-19T09:44:23;12.40;99.90
16229;DHT22;8222;51.462;12.630;2023-04-19T09:46:52;12.50;99.90
16229;DHT22;8222;51.462;12.630;2023-04-19T09:49:22;12.70;99.90
16229;DHT22;8222;51.462;12.630;2023-04-19T09:51:56;12.80;99.90
16229;DHT22;8222;51.462;12.630;2023-04-19T09:54:25;12.80;99.90
16229;DHT22;8222;51.462;12.630;2023-04-19T09:56:56;13.10;99.90
16229;DHT22;8222;51.462;12.630;2023-04-19T09:59:24;13.40;99.90
16229;DHT22;8222;51.462;12.630;2023-04-19T10:01:57;13.40;99.90
16229;DHT22;8222;51.462;12.630;2023-04-19T10:04:26;13.20;96.90
16229;DHT22;8222;51.462;12.630;2023-04-19T10:06:53;13.00;99.90
16229;DHT22;8222;51.462;12.630;2023-04-19T10:09:30;13.30;99.90
16229;DHT22;8222;51.462;12.630;2023-04-19T10:11:57;13.50;99.90
16229;DHT22;8222;51.462;12.630;2023-04-19T10:14:24;13.80;99.90
16229;DHT22;8222;51.462;12.630;2023-04-19T10:16:50;13.60;99.90
16229;DHT22;8222;51.462;12.630;2023-04-19T10:19:18;13.60;99.80
16229;DHT22;8222;51.462;12.630;2023-04-19T10:21:49;13.50;99.90
16229;DHT22;8222;51.462;12.630;2023-04-19T10:24:16;13.50;99.90
16229;DHT22;8222;51.462;12.630;2023-04-19T10:27:11;13.40;99.90
16229;DHT22;8222;51.462;12.630;2023-04-19T10:29:58;13.40;99.90
16229;DHT22;8222;51.462;12.630;2023-04-19T10:32:40;13.60;99.90
16229;DHT22;8222;51.462;12.630;2023-04-19T10:40:58;13.60;99.90
16229;DHT22;8222;51.462;12.630;2023-04-19T10:43:34;13.60;99.90
16229;DHT22;8222;51.462;12.630;2023-04-19T10:49:06;13.40;99.40
16229;DHT22;8222;51.462;12.630;2023-04-19T10:51:35;13.70;99.90
16229;DHT22;8222;51.462;12.630;2023-04-19T10:54:05;13.90;98.30
16229;DHT22;8222;51.462;12.630;2023-04-19T11:01:44;14.40;98.50
16229;DHT22;8222;51.462;12.630;2023-04-19T11:09:26;14.30;97.10
16229;DHT22;8222;51.462;12.630;2023-04-19T11:11:52;14.20;99.00
16229;DHT22;8222;51.462;12.630;2023-04-19T11:14:21;14.20;97.60
16229;DHT22;8222;51.462;12.630;2023-04-19T11:16:47;14.40;97.30
16229;DHT22;8222;51.462;12.630;2023-04-19T11:19:16;14.50;98.80
16229;DHT22;8222;51.462;12.630;2023-04-19T11:21:46;14.10;92.60
16229;DHT22;8222;51.462;12.630;2023-04-19T11:24:12;14.20;94.10
16229;DHT22;8222;51.462;12.630;2023-04-19T11:26:42;14.00;95.20
16229;DHT22;8222;51.462;12.630;2023-04-19T11:29:08;14.00;98.50
16229;DHT22;8222;51.462;12.630;2023-04-19T11:31:35;13.70;95.40
16229;DHT22;8222;51.462;12.630;2023-04-19T11:34:04;13.90;95.30
16229;DHT22;8222;51.462;12.630;2023-04-19T11:36:46;13.90;95.80
16229;DHT22;8222;51.462;12.630;2023-04-19T11:39:14;13.80;94.40
16229;DHT22;8222;51.462;12.630;2023-04-19T11:41:43;13.80;96.20
16229;DHT22;8222;51.462;12.630;2023-04-19T11:44:16;13.70;96.40
16229;DHT22;8222;51.462;12.630;2023-04-19T11:46:57;13.80;97.10
16229;DHT22;8222;51.462;12.630;2023-04-19T11:49:32;13.90;97.80
16229;DHT22;8222;51.462;12.630;2023-04-19T11:52:02;13.80;99.30
16229;DHT22;8222;51.462;12.630;2023-04-19T11:54:35;13.60;97.50
16229;DHT22;8222;51.462;12.630;2023-04-19T11:57:03;13.70;96.80
16229;DHT22;8222;51.462;12.630;2023-04-19T11:59:34;13.90;99.90
16229;DHT22;8222;51.462;12.630;2023-04-19T12:02:10;14.00;98.40
16229;DHT22;8222;51.462;12.630;2023-04-19T12:04:36;14.50;98.70
16229;DHT22;8222;51.462;12.630;2023-04-19T12:07:03;14.70;98.20
16229;DHT22;8222;51.462;12.630;2023-04-19T12:09:35;14.80;99.50
16229;DHT22;8222;51.462;12.630;2023-04-19T12:12:01;14.50;94.60
16229;DHT22;8222;51.462;12.630;2023-04-19T12:14:28;14.30;97.20
16229;DHT22;8222;51.462;12.630;2023-04-19T12:17:06;13.80;97.30
16229;DHT22;8222;51.462;12.630;2023-04-19T12:19:46;13.90;98.20
16229;DHT22;8222;51.462;12.630;2023-04-19T12:22:16;13.70;99.60
16229;DHT22;8222;51.462;12.630;2023-04-19T12:24:49;13.80;98.90
16229;DHT22;8222;51.462;12.630;2023-04-19T12:27:16;13.80;99.90
16229;DHT22;8222;51.462;12.630;2023-04-19T12:29:44;13.90;99.90
16229;DHT22;8222;51.462;12.630;2023-04-19T12:32:11;14.00;99.70
16229;DHT22;8222;51.462;12.630;2023-04-19T12:34:40;13.80;99.10
16229;DHT22;8222;51.462;12.630;2023-04-19T12:37:05;13.70;97.50
16229;DHT22;8222;51.462;12.630;2023-04-19T12:39:33;13.70;98.30
16229;DHT22;8222;51.462;12.630;2023-04-19T12:41:59;13.80;97.10
16229;DHT22;8222;51.462;12.630;2023-04-19T12:44:25;14.10;93.10
16229;DHT22;8222;51.462;12.630;2023-04-19T12:46:53;14.00;95.90
16229;DHT22;8222;51.462;12.630;2023-04-19T12:49:21;14.10;97.90
16229;DHT22;8222;51.462;12.630;2023-04-19T12:51:49;14.10;98.30
16229;DHT22;8222;51.462;12.630;2023-04-19T12:54:15;14.20;99.20
16229;DHT22;8222;51.462;12.630;2023-04-19T12:56:41;14.30;98.20
16229;DHT22;8222;51.462;12.630;2023-04-19T12:59:09;14.60;97.10
16229;DHT22;8222;51.462;12.630;2023-04-19T13:01:35;14.80;93.90
16229;DHT22;8222;51.462;12.630;2023-04-19T13:04:01;14.90;93.50
16229;DHT22;8222;51.462;12.630;2023-04-19T13:06:29;15.20;85.00
16229;DHT22;8222;51.462;12.630;2023-04-19T13:08:55;15.30;81.80
16229;DHT22;8222;51.462;12.630;2023-04-19T13:11:21;14.90;83.30
16229;DHT22;8222;51.462;12.630;2023-04-19T13:13:48;14.70;84.00
16229;DHT22;8222;51.462;12.630;2023-04-19T13:16:13;14.20;89.30
16229;DHT22;8222;51.462;12.630;2023-04-19T13:18:39;13.70;91.10
16229;DHT22;8222;51.462;12.630;2023-04-19T13:21:05;13.00;99.90
16229;DHT22;8222;51.462;12.630;2023-04-19T13:23:34;12.20;99.90
16229;DHT22;8222;51.462;12.630;2023-04-19T13:25:59;12.00;99.90
16229;DHT22;8222;51.462;12.630;2023-04-19T13:28:25;11.90;99.90
16229;DHT22;8222;51.462;12.630;2023-04-19T13:30:51;12.10;99.90
16229;DHT22;8222;51.462;12.630;2023-04-19T13:33:16;12.30;99.90
16229;DHT22;8222;51.462;12.630;2023-04-19T13:35:47;12.60;99.90
16229;DHT22;8222;51.462;12.630;2023-04-19T13:38:12;12.90;99.90
16229;DHT22;8222;51.462;12.630;2023-04-19T13:40:41;13.10;99.90
16229;DHT22;8222;51.462;12.630;2023-04-19T13:43:06;13.30;99.90
16229;DHT22;8222;51.462;12.630;2023-04-19T13:45:34;13.40;99.90
16229;DHT22;8222;51.462;12.630;2023-04-19T13:48:00;13.50;99.90
16229;DHT22;8222;51.462;12.630;2023-04-19T13:50:26;13.50;99.90
16229;DHT22;8222;51.462;12.630;2023-04-19T13:52:54;13.50;99.90
16229;DHT22;8222;51.462;12.630;2023-04-19T13:55:19;13.60;99.90
16229;DHT22;8222;51.462;12.630;2023-04-19T13:57:48;13.80;99.90
16229;DHT22;8222;51.462;12.630;2023-04-19T14:00:14;14.10;99.20
16229;DHT22;8222;51.462;12.630;2023-04-19T14:02:41;14.30;93.70
16229;DHT22;8222;51.462;12.630;2023-04-19T14:05:13;14.20;96.20
16229;DHT22;8222;51.462;12.630;2023-04-19T14:07:39;14.10;97.80
16229;DHT22;8222;51.462;12.630;2023-04-19T14:10:08;13.90;99.80
16229;DHT22;8222;51.462;12.630;2023-04-19T14:12:36;13.70;99.90
16229;DHT22;8222;51.462;12.630;2023-04-19T14:15:02;13.70;99.90
16229;DHT22;8222;51.462;12.630;2023-04-19T14:17:28;13.50;99.90
16229;DHT22;8222;51.462;12.630;2023-04-19T14:19:54;13.40;99.90
16229;DHT22;8222;51.462;12.630;2023-04-19T14:22:25;13.20;99.90
16229;DHT22;8222;51.462;12.630;2023-04-19T14:24:50;13.10;99.90
16229;DHT22;8222;51.462;12.630;2023-04-19T14:27:16;12.60;99.90
16229;DHT22;8222;51.462;12.630;2023-04-19T14:29:43;12.10;99.90
16229;DHT22;8222;51.462;12.630;2023-04-19T14:32:11;11.80;99.90
16229;DHT22;8222;51.462;12.630;2023-04-19T14:34:39;11.60;99.90
16229;DHT22;8222;51.462;12.630;2023-04-19T14:37:07;11.40;99.90
16229;DHT22;8222;51.462;12.630;2023-04-19T14:39:33;11.30;99.90
16229;DHT22;8222;51.462;12.630;2023-04-19T14:41:59;11.20;99.90
16229;DHT22;8222;51.462;12.630;2023-04-19T14:44:27;11.10;99.90
16229;DHT22;8222;51.462;12.630;2023-04-19T14:46:53;11.00;99.90
16229;DHT22;8222;51.462;12.630;2023-04-19T14:49:21;10.80;99.90
16229;DHT22;8222;51.462;12.630;2023-04-19T14:51:47;10.60;99.90
16229;DHT22;8222;51.462;12.630;2023-04-19T14:54:13;10.70;99.90
16229;DHT22;8222;51.462;12.630;2023-04-19T14:56:41;10.80;99.90
16229;DHT22;8222;51.462;12.630;2023-04-19T14:59:09;10.90;99.90
16229;DHT22;8222;51.462;12.630;2023-04-19T15:01:35;11.00;99.90
16229;DHT22;8222;51.462;12.630;2023-04-19T15:04:02;11.00;99.90
16229;DHT22;8222;51.462;12.630;2023-04-19T15:06:31;11.10;99.90
16229;DHT22;8222;51.462;12.630;2023-04-19T15:08:56;11.20;99.90
16229;DHT22;8222;51.462;12.630;2023-04-19T15:11:24;11.30;99.90
16229;DHT22;8222;51.462;12.630;2023-04-19T15:13:50;11.40;99.90
16229;DHT22;8222;51.462;12.630;2023-04-19T15:16:16;11.30;99.90
16229;DHT22;8222;51.462;12.630;2023-04-19T15:18:44;11.30;99.90
16229;DHT22;8222;51.462;12.630;2023-04-19T15:21:10;11.30;99.90
16229;DHT22;8222;51.462;12.630;2023-04-19T15:23:35;11.50;99.90
16229;DHT22;8222;51.462;12.630;2023-04-19T15:26:01;11.70;99.90
16229;DHT22;8222;51.462;12.630;2023-04-19T15:28:27;12.00;99.90
16229;DHT22;8222;51.462;12.630;2023-04-19T15:30:58;12.30;99.90
16229;DHT22;8222;51.462;12.630;2023-04-19T15:33:24;12.60;99.90
16229;DHT22;8222;51.462;12.630;2023-04-19T15:35:53;12.90;99.90
16229;DHT22;8222;51.462;12.630;2023-04-19T15:38:24;13.20;99.90
16229;DHT22;8222;51.462;12.630;2023-04-19T15:40:53;13.40;99.90
16229;DHT22;8222;51.462;12.630;2023-04-19T15:43:21;13.50;99.90
16229;DHT22;8222;51.462;12.630;2023-04-19T15:45:50;13.40;99.90
16229;DHT22;8222;51.462;12.630;2023-04-19T15:48:21;13.40;99.90
16229;DHT22;8222;51.462;12.630;2023-04-19T15:50:49;13.40;99.90
16229;DHT22;8222;51.462;12.630;2023-04-19T15:53:15;13.30;99.90
16229;DHT22;8222;51.462;12.630;2023-04-19T15:55:41;13.20;99.90
16229;DHT22;8222;51.462;12.630;2023-04-19T15:58:09;13.20;99.90
16229;DHT22;8222;51.462;12.630;2023-04-19T16:00:34;13.30;99.90